createdAt,value
2023-01-15T00:02:09.898Z,-4.08
2023-01-15T00:04:36.905Z,-4.07
2023-01-15T00:07:04.666Z,-4.04
2023-01-15T00:09:31.737Z,-4.05
2023-01-15T00:11:58.705Z,-4.04
2023-01-15T00:14:25.889Z,-4.05
2023-01-15T00:16:53.322Z,-4.12
2023-01-15T00:19:20.436Z,-4.06
2023-01-15T00:21:47.552Z,-4.03
2023-01-15T00:24:40.503Z,-4.03
2023-01-15T00:27:29.152Z,-4.07
2023-01-15T00:29:56.039Z,-4.06
2023-01-15T00:32:23.054Z,-4.06
2023-01-15T00:34:50.184Z,-4.06
2023-01-15T00:37:17.164Z,-4.07
2023-01-15T00:39:44.082Z,-4.05
2023-01-15T00:42:12.059Z,-4.04
2023-01-15T00:44:39.306Z,-4.06
2023-01-15T00:47:09.149Z,-4.07
2023-01-15T00:49:36.087Z,-4.08
2023-01-15T00:52:02.962Z,-4.05
2023-01-15T00:54:30.092Z,-4.05
2023-01-15T00:56:58.313Z,-4.07
2023-01-15T00:59:25.493Z,-4.06
2023-01-15T01:01:53.592Z,-4.05
2023-01-15T01:04:20.603Z,-4.07
2023-01-15T01:06:47.533Z,-4.09
2023-01-15T01:09:15.736Z,-4.08
2023-01-15T01:11:43.595Z,-4.07
2023-01-15T01:14:12.118Z,-4.03
2023-01-15T01:16:40.690Z,-4.05
2023-01-15T01:19:19.196Z,-4.06
2023-01-15T01:21:47.185Z,-4.06
2023-01-15T01:24:19.851Z,-4.07
2023-01-15T01:26:47.528Z,-4.07
2023-01-15T01:29:22.219Z,-4.05
2023-01-15T01:31:50.987Z,-4.05
2023-01-15T01:34:19.056Z,-4.04
2023-01-15T01:36:46.329Z,-4.07
2023-01-15T01:39:16.559Z,-4.03
2023-01-15T01:41:44.181Z,-4.06
2023-01-15T01:44:33.054Z,-4.05
2023-01-15T01:47:02.258Z,-4.07
2023-01-15T01:49:29.581Z,-4.09
2023-01-15T01:52:03.556Z,-4.05
2023-01-15T01:54:32.035Z,-4.07
2023-01-15T01:56:59.241Z,-4.05
2023-01-15T01:59:28.792Z,-4.03
2023-01-15T02:01:56.032Z,-4.05
2023-01-15T02:04:23.976Z,-4.05
2023-01-15T02:06:51.812Z,-4.04
2023-01-15T02:09:19.144Z,-4.01
2023-01-15T02:11:46.121Z,-4.01
2023-01-15T02:14:21.516Z,-3.98
2023-01-15T02:17:16.342Z,-4.03
2023-01-15T02:19:57.385Z,-4.06
2023-01-15T02:22:53.543Z,-4.07
2023-01-15T02:25:34.814Z,-4.11
2023-01-15T02:28:10.147Z,-4.11
2023-01-15T02:30:44.217Z,-4.07
2023-01-15T02:33:24.350Z,-4.09
2023-01-15T02:35:58.627Z,-4.06
2023-01-15T02:38:29.110Z,-4.03
2023-01-15T02:40:59.693Z,-4.04
2023-01-15T02:43:30.131Z,-4.00
2023-01-15T02:45:58.896Z,-4.03
2023-01-15T02:48:28.524Z,-4.04
2023-01-15T02:51:02.629Z,-4.01
2023-01-15T02:53:31.085Z,-4.01
2023-01-15T02:56:06.458Z,-4.05
2023-01-15T02:58:43.019Z,-4.00
2023-01-15T03:01:15.952Z,-4.00
2023-01-15T03:03:56.250Z,-4.00
2023-01-15T03:06:41.949Z,-3.98
2023-01-15T03:09:09.756Z,-3.96
2023-01-15T03:11:40.838Z,-3.96
2023-01-15T03:14:16.233Z,-3.95
2023-01-15T03:16:48.052Z,-3.96
2023-01-15T03:19:30.320Z,-3.94
2023-01-15T03:22:16.484Z,-3.95
2023-01-15T03:24:52.321Z,-3.96
2023-01-15T03:27:20.904Z,-3.98
2023-01-15T03:29:58.871Z,-3.97
2023-01-15T03:32:26.493Z,-4.01
2023-01-15T03:34:57.127Z,-4.00
2023-01-15T03:37:27.544Z,-4.01
2023-01-15T03:39:57.053Z,-3.98
2023-01-15T03:43:28.943Z,-4.01
2023-01-15T03:46:02.907Z,-4.03
2023-01-15T03:48:41.991Z,-4.04
2023-01-15T03:51:13.378Z,-3.96
2023-01-15T03:53:41.959Z,-3.96
2023-01-15T03:56:15.185Z,-3.99
2023-01-15T03:58:48.320Z,-3.95
2023-01-15T04:01:23.379Z,-3.96
2023-01-15T04:03:51.255Z,-4.00
2023-01-15T04:06:24.361Z,-3.98
2023-01-15T04:08:54.888Z,-3.98
2023-01-15T04:11:24.618Z,-3.98
2023-01-15T04:13:55.327Z,-3.96
2023-01-15T04:16:38.382Z,-3.96
2023-01-15T04:19:05.490Z,-3.98
2023-01-15T04:21:35.332Z,-3.96
2023-01-15T04:24:02.317Z,-3.91
2023-01-15T04:26:29.255Z,-3.88
2023-01-15T04:28:56.201Z,-3.92
2023-01-15T04:31:23.344Z,-3.95
2023-01-15T04:33:50.983Z,-3.95
2023-01-15T04:36:17.918Z,-3.98
2023-01-15T04:38:44.912Z,-3.97
2023-01-15T04:41:30.484Z,-3.95
2023-01-15T04:44:09.573Z,-3.97
2023-01-15T04:46:39.352Z,-3.97
2023-01-15T04:49:09.087Z,-3.93
2023-01-15T04:51:36.237Z,-3.99
2023-01-15T04:54:05.278Z,-4.00
2023-01-15T04:56:33.017Z,-3.97
2023-01-15T04:59:01.793Z,-3.96
2023-01-15T05:01:29.547Z,-3.95
2023-01-15T05:03:58.417Z,-3.97
2023-01-15T05:06:26.109Z,-3.99
2023-01-15T05:08:53.383Z,-4.03
2023-01-15T05:11:20.436Z,-4.04
2023-01-15T05:13:47.377Z,-4.03
2023-01-15T05:16:20.743Z,-4.04
2023-01-15T05:18:48.238Z,-4.15
2023-01-15T05:21:19.133Z,-4.05
2023-01-15T05:23:47.892Z,-4.08
2023-01-15T05:26:15.125Z,-4.06
2023-01-15T05:28:42.480Z,-4.12
2023-01-15T05:31:11.581Z,-4.14
2023-01-15T05:33:39.489Z,-4.01
2023-01-15T05:36:09.109Z,-4.04
2023-01-15T05:38:36.552Z,-4.09
2023-01-15T05:41:24.930Z,-4.11
2023-01-15T05:43:52.081Z,-4.11
2023-01-15T05:46:19.094Z,-4.03
2023-01-15T05:48:46.250Z,-4.01
2023-01-15T05:51:14.464Z,-4.00
2023-01-15T05:53:41.813Z,-3.96
2023-01-15T05:56:08.992Z,-3.98
2023-01-15T05:58:36.132Z,-4.00
2023-01-15T06:01:10.691Z,-4.00
2023-01-15T06:03:38.328Z,-4.06
2023-01-15T06:06:05.539Z,-3.98
2023-01-15T06:08:32.479Z,-4.09
2023-01-15T06:10:59.539Z,-4.05
2023-01-15T06:13:29.910Z,-4.06
2023-01-15T06:15:56.938Z,-4.08
2023-01-15T06:18:26.439Z,-3.97
2023-01-15T06:20:53.595Z,-4.03
2023-01-15T06:23:21.034Z,-3.94
2023-01-15T06:25:48.058Z,-4.02
2023-01-15T06:28:15.083Z,-4.00
2023-01-15T06:30:42.061Z,-3.94
2023-01-15T06:33:09.597Z,-3.93
2023-01-15T06:35:36.664Z,-3.96
2023-01-15T06:38:03.836Z,-3.86
2023-01-15T06:40:30.949Z,-3.87
2023-01-15T06:43:19.721Z,-3.82
2023-01-15T06:46:09.895Z,-3.85
2023-01-15T06:48:36.845Z,-3.88
2023-01-15T06:51:03.882Z,-3.87
2023-01-15T06:53:31.154Z,-3.80
2023-01-15T06:55:58.301Z,-3.94
2023-01-15T06:58:25.486Z,-3.84
2023-01-15T07:00:56.023Z,-3.78
2023-01-15T07:03:23.621Z,-3.75
2023-01-15T07:05:50.624Z,-3.75
2023-01-15T07:08:17.797Z,-3.77
2023-01-15T07:10:44.787Z,-3.81
2023-01-15T07:13:11.945Z,-3.84
2023-01-15T07:15:40.390Z,-3.82
2023-01-15T07:18:07.366Z,-3.84
2023-01-15T07:20:34.397Z,-3.81
2023-01-15T07:23:01.493Z,-3.77
2023-01-15T07:25:28.485Z,-3.83
2023-01-15T07:27:55.376Z,-3.77
2023-01-15T07:30:22.416Z,-3.76
2023-01-15T07:32:49.469Z,-3.74
2023-01-15T07:35:16.994Z,-3.72
2023-01-15T07:37:44.345Z,-3.68
2023-01-15T07:40:12.001Z,-3.66
2023-01-15T07:42:58.899Z,-3.63
2023-01-15T07:45:50.267Z,-3.62
2023-01-15T07:48:35.915Z,-3.63
2023-01-15T07:51:02.906Z,-3.62
2023-01-15T07:53:29.907Z,-3.58
2023-01-15T07:55:57.368Z,-3.57
2023-01-15T07:58:24.361Z,-3.64
2023-01-15T08:00:51.375Z,-3.66
2023-01-15T08:03:18.457Z,-3.62
2023-01-15T08:05:45.454Z,-3.59
2023-01-15T08:08:16.288Z,-3.58
2023-01-15T08:11:02.696Z,-3.58
2023-01-15T08:13:54.396Z,-3.53
2023-01-15T08:16:21.521Z,-3.42
2023-01-15T08:18:48.533Z,-3.40
2023-01-15T08:21:16.560Z,-3.51
2023-01-15T08:23:46.290Z,-3.41
2023-01-15T08:26:13.511Z,-3.35
2023-01-15T08:28:40.584Z,-3.29
2023-01-15T08:31:08.913Z,-3.36
2023-01-15T08:33:35.913Z,-3.33
2023-01-15T08:36:03.261Z,-3.20
2023-01-15T08:38:30.459Z,-3.28
2023-01-15T08:41:00.347Z,-3.14
2023-01-15T08:43:27.670Z,-3.12
2023-01-15T08:45:59.272Z,-3.13
2023-01-15T08:48:27.749Z,-3.11
2023-01-15T08:50:54.724Z,-3.10
2023-01-15T08:53:21.907Z,-3.10
2023-01-15T08:55:49.198Z,-3.16
2023-01-15T08:58:16.789Z,-3.11
2023-01-15T09:00:44.824Z,-3.07
2023-01-15T09:03:11.940Z,-3.08
2023-01-15T09:05:39.018Z,-3.15
2023-01-15T09:08:07.640Z,-3.22
2023-01-15T09:10:35.616Z,-3.19
2023-01-15T09:13:03.315Z,-3.25
2023-01-15T09:15:32.074Z,-3.17
2023-01-15T09:17:59.350Z,-3.13
2023-01-15T09:20:26.606Z,-3.13
2023-01-15T09:22:53.775Z,-3.16
2023-01-15T09:25:23.976Z,-3.14
2023-01-15T09:27:51.268Z,-3.17
2023-01-15T09:30:21.092Z,-3.16
2023-01-15T09:32:48.555Z,-3.20
2023-01-15T09:35:15.764Z,-3.17
2023-01-15T09:37:42.855Z,-3.08
2023-01-15T09:40:40.877Z,-3.09
2023-01-15T09:43:37.444Z,-3.08
2023-01-15T09:46:15.545Z,-3.12
2023-01-15T09:48:48.994Z,-3.03
2023-01-15T09:51:31.970Z,-3.10
2023-01-15T09:54:07.962Z,-3.01
2023-01-15T09:56:37.362Z,-3.12
2023-01-15T09:59:15.092Z,-2.96
2023-01-15T10:01:42.885Z,-2.83
2023-01-15T10:04:16.336Z,-2.76
2023-01-15T10:06:52.652Z,-2.87
2023-01-15T10:12:37.166Z,-2.71
2023-01-15T10:15:24.612Z,-2.73
2023-01-15T10:17:57.680Z,-2.87
2023-01-15T10:21:00.611Z,-2.76
2023-01-15T10:23:40.524Z,-2.84
2023-01-15T10:26:19.493Z,-2.75
2023-01-15T10:29:00.549Z,-2.79
2023-01-15T10:31:36.894Z,-2.77
2023-01-15T10:34:39.130Z,-2.87
2023-01-15T10:37:14.845Z,-2.84
2023-01-15T10:40:16.358Z,-2.84
2023-01-15T10:45:57.177Z,-2.75
2023-01-15T10:48:33.036Z,-2.73
2023-01-15T10:51:04.046Z,-2.75
2023-01-15T10:54:00.707Z,-2.68
2023-01-15T10:57:13.751Z,-2.67
2023-01-15T11:02:38.540Z,-2.53
2023-01-15T11:05:06.569Z,-2.71
2023-01-15T11:07:41.668Z,-2.54
2023-01-15T11:10:22.236Z,-2.47
2023-01-15T11:13:15.526Z,-2.55
2023-01-15T11:16:05.689Z,-2.64
2023-01-15T11:18:58.690Z,-2.71
2023-01-15T11:21:27.431Z,-2.64
2023-01-15T11:23:56.455Z,-2.58
2023-01-15T11:26:28.135Z,-2.60
2023-01-15T11:28:56.135Z,-2.68
2023-01-15T11:31:23.435Z,-2.72
2023-01-15T11:34:01.713Z,-2.71
2023-01-15T11:36:29.892Z,-2.74
2023-01-15T11:38:57.329Z,-2.77
2023-01-15T11:42:06.764Z,-2.70
2023-01-15T11:44:52.626Z,-2.76
2023-01-15T11:47:39.212Z,-2.90
2023-01-15T11:50:37.299Z,-2.77
2023-01-15T11:53:04.650Z,-2.85
2023-01-15T11:55:31.564Z,-2.86
2023-01-15T11:57:58.803Z,-2.86
2023-01-15T12:00:28.567Z,-2.87
2023-01-15T12:03:00.549Z,-2.84
2023-01-15T12:05:30.401Z,-2.90
2023-01-15T12:07:58.805Z,-2.89
2023-01-15T12:10:53.296Z,-2.92
2023-01-15T12:13:47.079Z,-2.91
2023-01-15T12:16:32.906Z,-2.86
2023-01-15T12:19:23.012Z,-2.89
2023-01-15T12:21:56.181Z,-2.93
2023-01-15T12:24:29.173Z,-2.86
2023-01-15T12:27:44.216Z,-2.84
2023-01-15T12:30:28.758Z,-2.84
2023-01-15T12:33:12.174Z,-2.89
2023-01-15T12:35:42.464Z,-2.99
2023-01-15T12:38:27.685Z,-2.94
2023-01-15T12:40:56.533Z,-2.98
2023-01-15T12:43:44.728Z,-3.06
2023-01-15T12:46:21.995Z,-3.03
2023-01-15T12:48:54.666Z,-3.01
2023-01-15T12:51:52.409Z,-3.11
2023-01-15T12:54:34.190Z,-3.20
2023-01-15T12:57:09.136Z,-3.27
2023-01-15T12:59:37.893Z,-3.21
2023-01-15T13:02:28.954Z,-3.22
2023-01-15T13:05:09.076Z,-3.23
2023-01-15T13:10:23.352Z,-3.24
2023-01-15T13:12:53.798Z,-3.33
2023-01-15T13:15:22.361Z,-3.28
2023-01-15T13:18:15.614Z,-3.25
2023-01-15T13:20:51.699Z,-3.25
2023-01-15T13:23:27.950Z,-3.24
2023-01-15T13:26:16.712Z,-3.23
2023-01-15T13:28:53.429Z,-3.31
2023-01-15T13:31:42.461Z,-3.33
2023-01-15T13:34:36.007Z,-3.44
2023-01-15T13:37:16.946Z,-3.34
2023-01-15T13:39:45.260Z,-3.39
2023-01-15T13:42:39.938Z,-3.32
2023-01-15T13:45:43.286Z,-3.31
2023-01-15T13:48:21.050Z,-3.40
2023-01-15T13:50:59.270Z,-3.50
2023-01-15T13:53:28.924Z,-3.41
2023-01-15T13:56:06.586Z,-3.42
2023-01-15T14:01:51.024Z,-3.47
2023-01-15T14:07:14.079Z,-3.58
2023-01-15T14:12:50.581Z,-3.46
2023-01-15T14:15:30.243Z,-3.50
2023-01-15T14:18:35.088Z,-3.50
2023-01-15T14:21:23.168Z,-3.51
2023-01-15T14:28:26.702Z,-3.72
2023-01-15T14:31:32.257Z,-3.62
2023-01-15T14:34:58.772Z,-3.61
2023-01-15T14:45:39.088Z,-3.71
2023-01-15T14:48:27.132Z,-3.67
2023-01-15T14:51:26.975Z,-3.69
2023-01-15T14:54:25.432Z,-3.78
2023-01-15T14:57:31.207Z,-3.65
2023-01-15T15:00:04.136Z,-3.75
2023-01-15T15:08:43.007Z,-3.72
2023-01-15T15:11:37.724Z,-3.72
2023-01-15T15:15:25.990Z,-3.70
2023-01-15T15:18:13.730Z,-3.82
2023-01-15T15:21:28.832Z,-3.73
2023-01-15T15:24:49.525Z,-3.74
2023-01-15T15:27:22.610Z,-3.83
2023-01-15T15:33:41.992Z,-3.89
2023-01-15T15:43:58.079Z,-3.96
2023-01-15T15:46:55.998Z,-3.86
2023-01-15T15:53:27.699Z,-4.06
2023-01-15T16:10:41.572Z,-4.02
2023-01-15T16:34:11.826Z,-4.23
2023-01-15T17:11:31.895Z,-4.39
2023-01-15T17:14:21.657Z,-4.40
2023-01-15T17:16:59.155Z,-4.48
2023-01-15T17:19:27.436Z,-4.40
2023-01-15T17:22:02.279Z,-4.43
2023-01-15T17:24:58.706Z,-4.45
2023-01-15T17:30:39.934Z,-4.54
2023-01-15T17:33:44.487Z,-4.51
2023-01-15T17:36:37.755Z,-4.48
2023-01-15T17:39:20.390Z,-4.61
2023-01-15T17:42:45.669Z,-4.66
2023-01-15T17:45:31.900Z,-4.62
2023-01-15T17:48:18.582Z,-4.68
2023-01-15T17:51:04.890Z,-4.62
2023-01-15T17:53:50.604Z,-4.65
2023-01-15T18:02:50.155Z,-4.68
2023-01-15T18:05:27.733Z,-4.79
2023-01-15T18:07:57.528Z,-4.72
2023-01-15T18:10:37.115Z,-4.77
2023-01-15T18:13:19.481Z,-4.76
2023-01-15T18:16:26.792Z,-4.66
2023-01-15T18:19:01.640Z,-4.71
2023-01-15T18:21:51.323Z,-4.69
2023-01-15T18:31:28.952Z,-4.70
2023-01-15T18:34:03.361Z,-4.71
2023-01-15T18:36:50.399Z,-4.86
2023-01-15T18:43:13.939Z,-4.86
2023-01-15T18:46:19.749Z,-4.77
2023-01-15T18:48:57.904Z,-4.80
2023-01-15T18:51:28.956Z,-4.75
2023-01-15T18:56:50.470Z,-4.78
2023-01-15T18:59:22.368Z,-4.82
2023-01-15T19:04:46.943Z,-4.85
2023-01-15T19:07:21.423Z,-4.74
2023-01-15T19:09:52.438Z,-4.83
2023-01-15T19:12:22.340Z,-4.83
2023-01-15T19:23:56.525Z,-4.91
2023-01-15T19:29:30.270Z,-4.90
2023-01-15T19:32:06.869Z,-4.80
2023-01-15T19:34:56.087Z,-4.92
2023-01-15T19:37:32.661Z,-4.76
2023-01-15T19:40:09.020Z,-4.80
2023-01-15T19:46:02.899Z,-4.83
2023-01-15T19:48:49.949Z,-4.90
2023-01-15T19:51:21.733Z,-4.83
2023-01-15T19:54:06.449Z,-4.84
2023-01-15T19:56:36.502Z,-4.79
2023-01-15T19:59:04.786Z,-4.93
2023-01-15T20:01:35.954Z,-4.90
2023-01-15T20:04:12.782Z,-4.82
2023-01-15T20:06:49.609Z,-4.85
2023-01-15T20:09:23.007Z,-4.88
2023-01-15T20:12:25.799Z,-4.85
2023-01-15T20:18:03.828Z,-4.95
2023-01-15T20:20:35.838Z,-5.11
2023-01-15T20:23:07.666Z,-5.11
2023-01-15T20:25:39.499Z,-5.02
2023-01-15T20:31:28.737Z,-4.96
2023-01-15T20:34:12.492Z,-4.96
2023-01-15T20:36:45.981Z,-5.05
2023-01-15T20:39:18.796Z,-5.12
2023-01-15T20:42:09.258Z,-5.07
2023-01-15T20:44:58.091Z,-5.15
2023-01-15T20:47:49.243Z,-5.16
2023-01-15T20:50:21.388Z,-5.18
2023-01-15T20:52:51.915Z,-5.06
2023-01-15T20:55:25.175Z,-5.11
2023-01-15T20:57:53.791Z,-5.14
2023-01-15T21:00:29.807Z,-5.12
2023-01-15T21:03:01.217Z,-5.09
2023-01-15T21:05:31.771Z,-5.12
2023-01-15T21:08:03.989Z,-5.15
2023-01-15T21:10:39.779Z,-5.21
2023-01-15T21:13:09.687Z,-5.14
2023-01-15T21:15:44.042Z,-5.15
2023-01-15T21:18:21.405Z,-5.11
2023-01-15T21:20:50.909Z,-5.10
2023-01-15T21:23:28.425Z,-5.14
2023-01-15T21:26:03.089Z,-5.13
2023-01-15T21:28:31.967Z,-5.14
2023-01-15T21:31:05.656Z,-5.17
2023-01-15T21:33:34.869Z,-5.24
2023-01-15T21:36:11.267Z,-5.25
2023-01-15T21:38:43.468Z,-5.31
2023-01-15T21:41:23.652Z,-5.23
2023-01-15T21:44:16.071Z,-5.22
2023-01-15T21:46:49.030Z,-5.31
2023-01-15T21:49:20.752Z,-5.32
2023-01-15T21:51:49.566Z,-5.28
2023-01-15T21:54:36.862Z,-5.31
2023-01-15T21:57:08.537Z,-5.34
2023-01-15T21:59:36.393Z,-5.34
2023-01-15T22:02:05.149Z,-5.33
2023-01-15T22:04:35.583Z,-5.37
2023-01-15T22:07:03.187Z,-5.32
2023-01-15T22:09:30.809Z,-5.33
2023-01-15T22:11:57.811Z,-5.30
2023-01-15T22:14:30.183Z,-5.31
2023-01-15T22:16:59.082Z,-5.43
2023-01-15T22:23:12.653Z,-5.30
2023-01-15T22:26:21.308Z,-5.32
2023-01-15T22:29:17.668Z,-5.30
2023-01-15T22:35:13.393Z,-5.40
2023-01-15T22:40:30.675Z,-5.28
2023-01-15T22:43:26.923Z,-5.24
2023-01-15T22:45:53.903Z,-5.27
2023-01-15T22:48:20.883Z,-5.28
2023-01-15T22:50:47.828Z,-5.26
2023-01-15T22:53:15.253Z,-5.27
2023-01-15T22:55:42.343Z,-5.26
2023-01-15T22:58:09.331Z,-5.27
2023-01-15T23:00:36.372Z,-5.25
2023-01-15T23:03:08.821Z,-5.26
2023-01-15T23:05:39.322Z,-5.29
2023-01-15T23:08:06.842Z,-5.29
2023-01-15T23:10:33.765Z,-5.32
2023-01-15T23:13:00.940Z,-5.34
2023-01-15T23:15:27.849Z,-5.33
2023-01-15T23:17:57.216Z,-5.35
2023-01-15T23:20:24.214Z,-5.36
2023-01-15T23:22:51.160Z,-5.39
2023-01-15T23:25:18.093Z,-5.39
2023-01-15T23:27:45.729Z,-5.40
2023-01-15T23:30:12.934Z,-5.40
2023-01-15T23:32:39.970Z,-5.42
2023-01-15T23:35:08.425Z,-5.41
2023-01-15T23:37:35.426Z,-5.42
2023-01-15T23:40:02.385Z,-5.43
2023-01-15T23:42:49.368Z,-5.42
2023-01-15T23:45:34.991Z,-5.44
2023-01-15T23:48:01.980Z,-5.45
2023-01-15T23:50:29.035Z,-5.45
2023-01-15T23:52:55.953Z,-5.46
2023-01-15T23:55:23.006Z,-5.51
2023-01-15T23:57:49.912Z,-5.44
